<?xml version="1.0" encoding="UTF-8" standalone="no" ?>
<gpx xmlns="http://www.topografix.com/GPX/1/1" xmlns:xsi="http://www.w3.org/2001/XMLSchema-instance" xsi:schemaLocation="http://www.topografix.com/GPX/1/1 http://www.topografix.com/GPX/1/1/gpx.xsd" version="1.1" creator="VisuGPX - https://www.visugpx.com">
  <metadata>
    <name>Via podiensis Le Puy-Cahors</name>
  </metadata>
  <trk>
    <name><![CDATA[Via podiensis Le Puy-Cahors_2]]></name>
    <trkseg>
      <trkpt lat="44.35922" lon="1.5716">
        <ele>265.6953125</ele>
        <time>2012-06-07T23:20:41Z</time>
      </trkpt>
      <trkpt lat="44.36145" lon="1.56908">
        <ele>246.60546875</ele>
        <time>2012-06-07T23:21:01Z</time>
      </trkpt>
      <trkpt lat="44.36198" lon="1.56773">
        <ele>250.16796875</ele>
        <time>2012-06-07T23:21:21Z</time>
      </trkpt>
      <trkpt lat="44.36303" lon="1.56467">
        <ele>263.2109375</ele>
        <time>2012-06-07T23:21:41Z</time>
      </trkpt>
      <trkpt lat="44.36393" lon="1.56278">
        <ele>269.91796875</ele>
        <time>2012-06-07T23:22:01Z</time>
      </trkpt>
      <trkpt lat="44.36449" lon="1.5615">
        <ele>271.78125</ele>
        <time>2012-06-07T23:22:21Z</time>
      </trkpt>
      <trkpt lat="44.3662" lon="1.55863">
        <ele>275.6328125</ele>
        <time>2012-06-07T23:22:41Z</time>
      </trkpt>
      <trkpt lat="44.36712" lon="1.55583">
        <ele>276</ele>
        <time>2012-06-07T23:23:01Z</time>
      </trkpt>
      <trkpt lat="44.36886" lon="1.55248">
        <ele>270.45703125</ele>
        <time>2012-06-07T23:23:21Z</time>
      </trkpt>
      <trkpt lat="44.36969" lon="1.55101">
        <ele>270.75390625</ele>
        <time>2012-06-07T23:23:41Z</time>
      </trkpt>
      <trkpt lat="44.37055" lon="1.54805">
        <ele>274.96484375</ele>
        <time>2012-06-07T23:24:01Z</time>
      </trkpt>
      <trkpt lat="44.37085" lon="1.54658">
        <ele>271</ele>
        <time>2012-06-07T23:24:21Z</time>
      </trkpt>
      <trkpt lat="44.3717" lon="1.54425">
        <ele>272</ele>
        <time>2012-06-07T23:24:41Z</time>
      </trkpt>
      <trkpt lat="44.37203" lon="1.54143">
        <ele>265.62890625</ele>
        <time>2012-06-07T23:25:01Z</time>
      </trkpt>
      <trkpt lat="44.37213" lon="1.53965">
        <ele>259.1171875</ele>
        <time>2012-06-07T23:25:21Z</time>
      </trkpt>
      <trkpt lat="44.37368" lon="1.53604">
        <ele>245.1796875</ele>
        <time>2012-06-07T23:25:41Z</time>
      </trkpt>
      <trkpt lat="44.3742" lon="1.53513">
        <ele>234.96484375</ele>
        <time>2012-06-07T23:26:01Z</time>
      </trkpt>
      <trkpt lat="44.3748" lon="1.53464">
        <ele>232.58203125</ele>
        <time>2012-06-07T23:26:21Z</time>
      </trkpt>
      <trkpt lat="44.37486" lon="1.5329">
        <ele>233.92578125</ele>
        <time>2012-06-07T23:26:41Z</time>
      </trkpt>
      <trkpt lat="44.37442" lon="1.5303">
        <ele>221.5234375</ele>
        <time>2012-06-07T23:27:01Z</time>
      </trkpt>
      <trkpt lat="44.37543" lon="1.52667">
        <ele>209.85546875</ele>
        <time>2012-06-07T23:27:21Z</time>
      </trkpt>
      <trkpt lat="44.37611" lon="1.52605">
        <ele>205.87890625</ele>
        <time>2012-06-07T23:27:41Z</time>
      </trkpt>
      <trkpt lat="44.37676" lon="1.52463">
        <ele>198.71484375</ele>
        <time>2012-06-07T23:28:01Z</time>
      </trkpt>
      <trkpt lat="44.37805" lon="1.52414">
        <ele>194.66015625</ele>
        <time>2012-06-07T23:28:21Z</time>
      </trkpt>
      <trkpt lat="44.37905" lon="1.5245">
        <ele>194.6640625</ele>
        <time>2012-06-07T23:28:41Z</time>
      </trkpt>
      <trkpt lat="44.37998" lon="1.52405">
        <ele>191.8671875</ele>
        <time>2012-06-07T23:29:01Z</time>
      </trkpt>
      <trkpt lat="44.38057" lon="1.52413">
        <ele>194.2109375</ele>
        <time>2012-06-07T23:29:21Z</time>
      </trkpt>
      <trkpt lat="44.38177" lon="1.52293">
        <ele>199.40234375</ele>
        <time>2012-06-07T23:29:41Z</time>
      </trkpt>
      <trkpt lat="44.38196" lon="1.52152">
        <ele>192.77734375</ele>
        <time>2012-06-07T23:30:01Z</time>
      </trkpt>
      <trkpt lat="44.3827" lon="1.52079">
        <ele>192.9296875</ele>
        <time>2012-06-07T23:30:21Z</time>
      </trkpt>
      <trkpt lat="44.38446" lon="1.51807">
        <ele>189.921875</ele>
        <time>2012-06-07T23:30:41Z</time>
      </trkpt>
      <trkpt lat="44.38551" lon="1.51779">
        <ele>185.12109375</ele>
        <time>2012-06-07T23:31:01Z</time>
      </trkpt>
      <trkpt lat="44.38561" lon="1.51717">
        <ele>183</ele>
        <time>2012-06-07T23:31:21Z</time>
      </trkpt>
      <trkpt lat="44.38617" lon="1.51718">
        <ele>183.56640625</ele>
        <time>2012-06-07T23:31:41Z</time>
      </trkpt>
      <trkpt lat="44.38622" lon="1.51675">
        <ele>185.9609375</ele>
        <time>2012-06-07T23:32:01Z</time>
      </trkpt>
      <trkpt lat="44.3853" lon="1.5169">
        <ele>185.4296875</ele>
        <time>2012-06-07T23:32:21Z</time>
      </trkpt>
      <trkpt lat="44.38501" lon="1.51666">
        <ele>188.21484375</ele>
        <time>2012-06-07T23:32:41Z</time>
      </trkpt>
      <trkpt lat="44.38532" lon="1.5161">
        <ele>187.50390625</ele>
        <time>2012-06-07T23:33:01Z</time>
      </trkpt>
      <trkpt lat="44.38507" lon="1.5138">
        <ele>199.4453125</ele>
        <time>2012-06-07T23:33:21Z</time>
      </trkpt>
      <trkpt lat="44.38371" lon="1.51303">
        <ele>195.796875</ele>
        <time>2012-06-07T23:33:41Z</time>
      </trkpt>
      <trkpt lat="44.38295" lon="1.5116">
        <ele>197.8125</ele>
        <time>2012-06-07T23:34:01Z</time>
      </trkpt>
      <trkpt lat="44.38327" lon="1.50937">
        <ele>208.41796875</ele>
        <time>2012-06-07T23:34:21Z</time>
      </trkpt>
      <trkpt lat="44.38426" lon="1.50856">
        <ele>215.40625</ele>
        <time>2012-06-07T23:34:41Z</time>
      </trkpt>
      <trkpt lat="44.38598" lon="1.50547">
        <ele>232.88671875</ele>
        <time>2012-06-07T23:35:01Z</time>
      </trkpt>
      <trkpt lat="44.38646" lon="1.50497">
        <ele>237.9140625</ele>
        <time>2012-06-07T23:35:21Z</time>
      </trkpt>
      <trkpt lat="44.38663" lon="1.50393">
        <ele>245.03515625</ele>
        <time>2012-06-07T23:35:41Z</time>
      </trkpt>
      <trkpt lat="44.38692" lon="1.50231">
        <ele>253.27734375</ele>
        <time>2012-06-07T23:36:01Z</time>
      </trkpt>
      <trkpt lat="44.38894" lon="1.50388">
        <ele>251.453125</ele>
        <time>2012-06-07T23:36:21Z</time>
      </trkpt>
      <trkpt lat="44.38975" lon="1.50484">
        <ele>253</ele>
        <time>2012-06-07T23:36:41Z</time>
      </trkpt>
      <trkpt lat="44.39121" lon="1.5058">
        <ele>251.50390625</ele>
        <time>2012-06-07T23:37:01Z</time>
      </trkpt>
      <trkpt lat="44.39216" lon="1.50525">
        <ele>248.60546875</ele>
        <time>2012-06-07T23:37:21Z</time>
      </trkpt>
      <trkpt lat="44.3928" lon="1.50461">
        <ele>236.734375</ele>
        <time>2012-06-07T23:37:41Z</time>
      </trkpt>
      <trkpt lat="44.39368" lon="1.50453">
        <ele>230.98046875</ele>
        <time>2012-06-07T23:38:01Z</time>
      </trkpt>
      <trkpt lat="44.39475" lon="1.50415">
        <ele>226.53515625</ele>
        <time>2012-06-07T23:38:21Z</time>
      </trkpt>
      <trkpt lat="44.39524" lon="1.5037">
        <ele>232.52734375</ele>
        <time>2012-06-07T23:38:41Z</time>
      </trkpt>
      <trkpt lat="44.39536" lon="1.50267">
        <ele>245.6796875</ele>
        <time>2012-06-07T23:39:01Z</time>
      </trkpt>
      <trkpt lat="44.39642" lon="1.50038">
        <ele>272.33984375</ele>
        <time>2012-06-07T23:39:21Z</time>
      </trkpt>
      <trkpt lat="44.39834" lon="1.49844">
        <ele>272.40234375</ele>
        <time>2012-06-07T23:39:41Z</time>
      </trkpt>
      <trkpt lat="44.39836" lon="1.49815">
        <ele>271.625</ele>
        <time>2012-06-07T23:40:01Z</time>
      </trkpt>
      <trkpt lat="44.39901" lon="1.49784">
        <ele>270.4921875</ele>
        <time>2012-06-07T23:40:21Z</time>
      </trkpt>
      <trkpt lat="44.39996" lon="1.49653">
        <ele>268.6328125</ele>
        <time>2012-06-07T23:40:41Z</time>
      </trkpt>
      <trkpt lat="44.40127" lon="1.49388">
        <ele>258.25</ele>
        <time>2012-06-07T23:41:01Z</time>
      </trkpt>
      <trkpt lat="44.40528" lon="1.49025">
        <ele>210.2734375</ele>
        <time>2012-06-07T23:41:21Z</time>
      </trkpt>
      <trkpt lat="44.40643" lon="1.48958">
        <ele>198</ele>
        <time>2012-06-07T23:41:41Z</time>
      </trkpt>
      <trkpt lat="44.40787" lon="1.48966">
        <ele>198.33203125</ele>
        <time>2012-06-07T23:42:01Z</time>
      </trkpt>
      <trkpt lat="44.40854" lon="1.4905">
        <ele>193.859375</ele>
        <time>2012-06-07T23:42:21Z</time>
      </trkpt>
      <trkpt lat="44.40883" lon="1.491">
        <ele>190.42578125</ele>
        <time>2012-06-07T23:42:41Z</time>
      </trkpt>
      <trkpt lat="44.4092" lon="1.49126">
        <ele>194.4375</ele>
        <time>2012-06-07T23:43:01Z</time>
      </trkpt>
      <trkpt lat="44.40961" lon="1.4906">
        <ele>203.12890625</ele>
        <time>2012-06-07T23:43:21Z</time>
      </trkpt>
      <trkpt lat="44.4095" lon="1.48937">
        <ele>205.2734375</ele>
        <time>2012-06-07T23:43:41Z</time>
      </trkpt>
      <trkpt lat="44.40838" lon="1.48635">
        <ele>206.2421875</ele>
        <time>2012-06-07T23:44:01Z</time>
      </trkpt>
      <trkpt lat="44.40871" lon="1.48427">
        <ele>204.421875</ele>
        <time>2012-06-07T23:44:21Z</time>
      </trkpt>
      <trkpt lat="44.40852" lon="1.48057">
        <ele>216.23046875</ele>
        <time>2012-06-07T23:44:41Z</time>
      </trkpt>
      <trkpt lat="44.40807" lon="1.47958">
        <ele>214.8046875</ele>
        <time>2012-06-07T23:45:01Z</time>
      </trkpt>
      <trkpt lat="44.40788" lon="1.47875">
        <ele>217.3046875</ele>
        <time>2012-06-07T23:45:21Z</time>
      </trkpt>
      <trkpt lat="44.40725" lon="1.47832">
        <ele>217.41796875</ele>
        <time>2012-06-07T23:45:41Z</time>
      </trkpt>
      <trkpt lat="44.40612" lon="1.47686">
        <ele>223.89453125</ele>
        <time>2012-06-07T23:46:01Z</time>
      </trkpt>
      <trkpt lat="44.40588" lon="1.47598">
        <ele>226.28125</ele>
        <time>2012-06-07T23:46:21Z</time>
      </trkpt>
      <trkpt lat="44.40601" lon="1.47507">
        <ele>229.23046875</ele>
        <time>2012-06-07T23:46:41Z</time>
      </trkpt>
      <trkpt lat="44.40588" lon="1.4747">
        <ele>228.4375</ele>
        <time>2012-06-07T23:47:01Z</time>
      </trkpt>
      <trkpt lat="44.40659" lon="1.47325">
        <ele>236.24609375</ele>
        <time>2012-06-07T23:47:21Z</time>
      </trkpt>
      <trkpt lat="44.40706" lon="1.47252">
        <ele>240.07421875</ele>
        <time>2012-06-07T23:47:41Z</time>
      </trkpt>
      <trkpt lat="44.40703" lon="1.47218">
        <ele>242.140625</ele>
        <time>2012-06-07T23:48:01Z</time>
      </trkpt>
      <trkpt lat="44.40779" lon="1.47129">
        <ele>248.83984375</ele>
        <time>2012-06-07T23:48:21Z</time>
      </trkpt>
      <trkpt lat="44.40734" lon="1.47029">
        <ele>257.75</ele>
        <time>2012-06-07T23:48:41Z</time>
      </trkpt>
      <trkpt lat="44.40752" lon="1.46959">
        <ele>264.3984375</ele>
        <time>2012-06-07T23:49:01Z</time>
      </trkpt>
      <trkpt lat="44.40802" lon="1.46857">
        <ele>268.79296875</ele>
        <time>2012-06-07T23:49:21Z</time>
      </trkpt>
      <trkpt lat="44.40926" lon="1.46913">
        <ele>273.421875</ele>
        <time>2012-06-07T23:49:41Z</time>
      </trkpt>
      <trkpt lat="44.41036" lon="1.46868">
        <ele>280.03125</ele>
        <time>2012-06-07T23:50:01Z</time>
      </trkpt>
      <trkpt lat="44.41225" lon="1.46818">
        <ele>272.83203125</ele>
        <time>2012-06-07T23:50:21Z</time>
      </trkpt>
      <trkpt lat="44.41292" lon="1.46783">
        <ele>270.05078125</ele>
        <time>2012-06-07T23:50:41Z</time>
      </trkpt>
      <trkpt lat="44.41426" lon="1.46574">
        <ele>264.18359375</ele>
        <time>2012-06-07T23:51:01Z</time>
      </trkpt>
      <trkpt lat="44.41488" lon="1.46491">
        <ele>263.984375</ele>
        <time>2012-06-07T23:51:21Z</time>
      </trkpt>
      <trkpt lat="44.415" lon="1.46404">
        <ele>266.19921875</ele>
        <time>2012-06-07T23:51:41Z</time>
      </trkpt>
      <trkpt lat="44.41587" lon="1.46252">
        <ele>271.84375</ele>
        <time>2012-06-07T23:52:01Z</time>
      </trkpt>
      <trkpt lat="44.41686" lon="1.46155">
        <ele>270.76171875</ele>
        <time>2012-06-07T23:52:21Z</time>
      </trkpt>
      <trkpt lat="44.41775" lon="1.45691">
        <ele>256.64453125</ele>
        <time>2012-06-07T23:52:41Z</time>
      </trkpt>
      <trkpt lat="44.41961" lon="1.45582">
        <ele>251.13671875</ele>
        <time>2012-06-07T23:53:01Z</time>
      </trkpt>
      <trkpt lat="44.42057" lon="1.45469">
        <ele>256.8984375</ele>
        <time>2012-06-07T23:53:21Z</time>
      </trkpt>
      <trkpt lat="44.42136" lon="1.45457">
        <ele>258.09765625</ele>
        <time>2012-06-07T23:53:41Z</time>
      </trkpt>
      <trkpt lat="44.42171" lon="1.4547">
        <ele>255.51953125</ele>
        <time>2012-06-07T23:54:01Z</time>
      </trkpt>
      <trkpt lat="44.42269" lon="1.45429">
        <ele>249.88671875</ele>
        <time>2012-06-07T23:54:21Z</time>
      </trkpt>
      <trkpt lat="44.42398" lon="1.4547">
        <ele>252.8671875</ele>
        <time>2012-06-07T23:54:41Z</time>
      </trkpt>
      <trkpt lat="44.4251" lon="1.45456">
        <ele>248.1015625</ele>
        <time>2012-06-07T23:55:01Z</time>
      </trkpt>
      <trkpt lat="44.42607" lon="1.45487">
        <ele>253.05078125</ele>
        <time>2012-06-07T23:55:21Z</time>
      </trkpt>
      <trkpt lat="44.42692" lon="1.4549">
        <ele>260.26171875</ele>
        <time>2012-06-07T23:55:41Z</time>
      </trkpt>
      <trkpt lat="44.42755" lon="1.45431">
        <ele>260.70703125</ele>
        <time>2012-06-07T23:56:01Z</time>
      </trkpt>
      <trkpt lat="44.42877" lon="1.45402">
        <ele>254.29296875</ele>
        <time>2012-06-07T23:56:21Z</time>
      </trkpt>
      <trkpt lat="44.43011" lon="1.45308">
        <ele>251.765625</ele>
        <time>2012-06-07T23:56:41Z</time>
      </trkpt>
      <trkpt lat="44.43066" lon="1.45215">
        <ele>249.08203125</ele>
        <time>2012-06-07T23:57:01Z</time>
      </trkpt>
      <trkpt lat="44.4324" lon="1.45024">
        <ele>244.80859375</ele>
        <time>2012-06-07T23:57:21Z</time>
      </trkpt>
      <trkpt lat="44.43304" lon="1.44947">
        <ele>245.0703125</ele>
        <time>2012-06-07T23:57:41Z</time>
      </trkpt>
      <trkpt lat="44.43335" lon="1.44872">
        <ele>242.75</ele>
        <time>2012-06-07T23:58:01Z</time>
      </trkpt>
      <trkpt lat="44.4348" lon="1.4473">
        <ele>218.80859375</ele>
        <time>2012-06-07T23:58:21Z</time>
      </trkpt>
      <trkpt lat="44.43659" lon="1.44583">
        <ele>189.640625</ele>
        <time>2012-06-07T23:58:41Z</time>
      </trkpt>
      <trkpt lat="44.43735" lon="1.44479">
        <ele>164.78125</ele>
        <time>2012-06-07T23:59:01Z</time>
      </trkpt>
      <trkpt lat="44.43823" lon="1.44322">
        <ele>139.56640625</ele>
        <time>2012-06-07T23:59:21Z</time>
      </trkpt>
      <trkpt lat="44.43836" lon="1.44371">
        <ele>139.33203125</ele>
        <time>2012-06-07T23:59:41Z</time>
      </trkpt>
      <trkpt lat="44.43811" lon="1.44439">
        <ele>141.70703125</ele>
        <time>2012-06-08T00:00:01Z</time>
      </trkpt>
      <trkpt lat="44.43827" lon="1.44449">
        <ele>136.34375</ele>
        <time>2012-06-08T00:00:21Z</time>
      </trkpt>
      <trkpt lat="44.43885" lon="1.44349">
        <ele>130.57421875</ele>
        <time>2012-06-08T00:00:41Z</time>
      </trkpt>
      <trkpt lat="44.43932" lon="1.44409">
        <ele>132.2109375</ele>
        <time>2012-06-08T00:01:01Z</time>
      </trkpt>
      <trkpt lat="44.43973" lon="1.44221">
        <ele>119.66796875</ele>
        <time>2012-06-08T00:01:21Z</time>
      </trkpt>
      <trkpt lat="44.44019" lon="1.44173">
        <ele>116</ele>
        <time>2012-06-08T00:01:41Z</time>
      </trkpt>
      <trkpt lat="44.44059" lon="1.44273">
        <ele>116.7890625</ele>
        <time>2012-06-08T00:02:01Z</time>
      </trkpt>
      <trkpt lat="44.44098" lon="1.44292">
        <ele>115.67578125</ele>
        <time>2012-06-08T00:02:21Z</time>
      </trkpt>
      <trkpt lat="44.44287" lon="1.44227">
        <ele>120.8203125</ele>
        <time>2012-06-08T00:02:41Z</time>
      </trkpt>
    </trkseg>
  </trk>
</gpx>